Time;durP1;ratioP1;P1;durP2;ratioP2;P2;SDS_P1;SDS_P2;PMS_P1;PMS_P2;Temp;Humidity;BMP_temperature;BMP_pressure;BME280_temperature;BME280_humidity;BME280_pressure;Samples;Min_cycle;Max_cycle;Signal;HPM_P1;HPM_P2
2021/12/22 00:01:05;;;;;;;19.43;14.77;;;;;;;-2.91;100.00;150630.28;5010955;28;20951;-76
2021/12/22 00:03:46;;;;;;;18.07;13.17;;;;;;;-2.94;100.00;150623.88;5025688;28;20954;-76
2021/12/22 00:06:26;;;;;;;19.70;15.10;;;;;;;-2.89;100.00;150636.69;5027072;28;20457;-75
2021/12/22 00:09:04;;;;;;;23.80;16.40;;;;;;;-2.91;100.00;150631.53;5011333;28;20448;-76
2021/12/22 00:11:39;;;;;;;19.10;15.53;;;;;;;-2.97;100.00;150616.19;5011270;28;20445;-75
2021/12/22 00:14:16;;;;;;;19.43;14.57;;;;;;;-3.02;100.00;150603.41;5011205;28;20501;-76
2021/12/22 00:16:52;;;;;;;19.87;13.70;;;;;;;-3.03;100.00;150599.53;5030615;28;20551;-76
2021/12/22 00:19:27;;;;;;;20.00;14.50;;;;;;;-3.06;100.00;150593.16;5017729;28;20455;-76
2021/12/22 00:22:04;;;;;;;21.43;14.17;;;;;;;-3.05;100.00;150595.72;5000413;28;20464;-76
2021/12/22 00:24:40;;;;;;;22.23;14.83;;;;;;;-3.06;100.00;150593.16;5012571;28;20873;-76
2021/12/22 00:27:16;;;;;;;22.73;14.07;;;;;;;-3.04;100.00;150598.25;5010426;28;20549;-76
2021/12/22 00:29:52;;;;;;;22.27;13.70;;;;;;;-3.04;100.00;150598.25;5012545;28;20782;-76
2021/12/22 00:32:30;;;;;;;17.00;13.07;;;;;;;-3.04;100.00;150598.25;5008875;28;20458;-75
2021/12/22 00:35:06;;;;;;;17.23;12.83;;;;;;;-3.08;100.00;150588.03;5001904;28;20475;-76
2021/12/22 00:37:43;;;;;;;21.20;14.40;;;;;;;-3.08;100.00;150588.03;5023484;28;20459;-75
2021/12/22 00:40:19;;;;;;;22.20;13.67;;;;;;;-3.01;100.00;150605.94;5010861;28;20939;-77
2021/12/22 00:42:54;;;;;;;21.10;14.03;;;;;;;-3.09;100.00;150585.47;5028559;28;20455;-76
2021/12/22 00:45:32;;;;;;;24.00;13.20;;;;;;;-3.05;100.00;150595.72;5012243;28;20903;-76
2021/12/22 00:48:10;;;;;;;19.30;12.10;;;;;;;-3.02;100.00;150603.41;5011193;28;20464;-76
2021/12/22 00:50:46;;;;;;;17.87;12.27;;;;;;;-2.96;99.77;150617.44;5010246;28;20452;-76
2021/12/22 00:53:23;;;;;;;18.00;12.50;;;;;;;-3.13;100.00;150576.53;5026274;28;20452;-76
2021/12/22 00:55:58;;;;;;;19.57;12.97;;;;;;;-3.05;100.00;150595.72;5010774;28;20602;-76
2021/12/22 00:58:34;;;;;;;22.17;15.03;;;;;;;-3.13;100.00;150575.25;5011264;28;20439;-76
2021/12/22 01:01:10;;;;;;;18.27;13.67;;;;;;;-3.10;100.00;150582.94;5042305;28;20455;-76
2021/12/22 01:03:45;;;;;;;24.40;14.40;;;;;;;-3.14;100.00;150573.97;5012523;28;20452;-76
2021/12/22 01:06:21;;;;;;;19.67;13.53;;;;;;;-3.14;100.00;150572.66;5009836;28;20458;-76
2021/12/22 01:08:58;;;;;;;21.60;15.27;;;;;;;-2.99;100.00;150611.03;5014064;28;20437;-76
2021/12/22 01:11:33;;;;;;;20.87;14.67;;;;;;;-3.04;100.00;150598.25;4975688;28;20856;-76
2021/12/22 01:14:10;;;;;;;19.70;13.93;;;;;;;-3.03;100.00;150599.53;4991311;28;20475;-76
2021/12/22 01:16:48;;;;;;;24.83;16.40;;;;;;;-3.07;100.00;150591.84;5004124;28;20480;-76
2021/12/22 01:19:32;;;;;;;21.60;15.73;;;;;;;-3.15;100.00;150570.13;5014555;28;20450;-76
2021/12/22 01:22:20;;;;;;;21.60;15.40;;;;;;;-3.06;100.00;150593.16;5015040;28;20448;-75
2021/12/22 01:25:02;;;;;;;21.03;14.90;;;;;;;-3.13;100.00;150576.53;5014255;28;20464;-76
2021/12/22 01:27:41;;;;;;;18.50;14.17;;;;;;;-3.21;100.00;150554.78;5004007;28;20483;-76
2021/12/22 01:30:25;;;;;;;23.13;16.30;;;;;;;-3.22;100.00;150553.50;5014381;28;20535;-76
2021/12/22 01:33:03;;;;;;;19.43;14.53;;;;;;;-3.22;100.00;150552.19;5014609;28;20451;-76
2021/12/22 01:35:39;;;;;;;18.57;13.57;;;;;;;-3.25;100.00;150545.81;5014109;28;20478;-76
2021/12/22 01:38:14;;;;;;;20.60;15.60;;;;;;;-3.24;100.00;150548.38;5011904;28;20532;-75
2021/12/22 01:40:52;;;;;;;21.47;14.80;;;;;;;-3.22;100.00;150552.19;5014967;28;20451;-76
2021/12/22 01:43:28;;;;;;;22.57;15.77;;;;;;;-3.27;100.00;150539.41;4995409;28;20456;-76
2021/12/22 01:49:08;;;;;;;21.33;14.60;;;;;;;-3.33;100.00;150525.31;5004609;28;20441;-76
2021/12/22 01:49:18;;;;;;;14.33;12.87;;;;;;;-3.37;100.00;150513.84;5015372;28;20535;-76
2021/12/22 01:51:57;;;;;;;22.40;13.90;;;;;;;-3.31;100.00;150529.19;4999192;28;20459;-76
2021/12/22 01:54:35;;;;;;;25.53;14.90;;;;;;;-3.32;100.00;150526.63;5015465;28;20462;-76
2021/12/22 01:57:12;;;;;;;25.17;14.73;;;;;;;-3.45;100.00;150494.66;5014477;28;20455;-76
2021/12/22 01:59:49;;;;;;;20.00;14.33;;;;;;;-3.46;100.00;150490.78;5013448;28;20509;-76
2021/12/22 02:02:25;;;;;;;23.53;15.53;;;;;;;-3.51;100.00;150479.28;4999234;28;20448;-76
2021/12/22 02:05:01;;;;;;;22.17;13.40;;;;;;;-3.51;100.00;150478.00;5005518;28;20443;-76
2021/12/22 02:07:36;;;;;;;19.70;14.33;;;;;;;-3.45;100.00;150494.66;5014920;28;20451;-76
2021/12/22 02:10:30;;;;;;;21.83;13.07;;;;;;;-3.44;100.00;150497.19;5013869;28;20439;-76
2021/12/22 02:13:09;;;;;;;23.53;14.10;;;;;;;-3.53;100.00;150472.91;5013718;28;20476;-76
2021/12/22 02:15:44;;;;;;;19.40;12.93;;;;;;;-3.57;100.00;150463.94;5032000;28;20471;-76
2021/12/22 02:18:21;;;;;;;22.70;14.87;;;;;;;-3.67;100.00;150438.34;5013702;28;20449;-76
2021/12/22 02:20:58;;;;;;;22.17;13.80;;;;;;;-3.57;100.00;150462.69;5013668;28;20434;-76
2021/12/22 02:23:34;;;;;;;24.57;14.13;;;;;;;-3.58;100.00;150461.41;5013879;28;20451;-76
2021/12/22 02:26:14;;;;;;;24.13;15.97;;;;;;;-3.65;100.00;150442.22;5013768;28;20454;-76
2021/12/22 02:28:58;;;;;;;19.50;13.97;;;;;;;-3.65;100.00;150443.47;5014422;28;20467;-76
2021/12/22 02:31:40;;;;;;;17.27;13.03;;;;;;;-3.73;100.00;150424.28;4994090;28;20455;-76
2021/12/22 02:34:16;;;;;;;26.53;16.13;;;;;;;-3.72;100.00;150426.84;4993383;28;20455;-76
2021/12/22 02:36:59;;;;;;;21.60;14.80;;;;;;;-3.64;100.00;150444.75;5030101;28;20448;-76
2021/12/22 02:39:34;;;;;;;19.80;13.80;;;;;;;-3.72;100.00;150426.84;5014266;28;20814;-76
2021/12/22 02:42:11;;;;;;;25.10;16.60;;;;;;;-3.70;100.00;150431.97;5013162;28;20558;-76
2021/12/22 02:44:47;;;;;;;19.50;14.93;;;;;;;-3.72;100.00;150426.84;5014521;28;20505;-76
2021/12/22 02:47:25;;;;;;;20.13;14.83;;;;;;;-3.74;100.00;150420.47;5014629;28;20465;-76
2021/12/22 02:50:01;;;;;;;23.00;14.53;;;;;;;-3.78;100.00;150411.50;5011737;28;20533;-76
2021/12/22 02:52:49;;;;;;;20.77;14.67;;;;;;;-3.80;100.00;150405.09;5010931;28;20499;-76
2021/12/22 02:55:30;;;;;;;23.53;14.80;;;;;;;-3.85;100.00;150393.63;5012253;28;21034;-75
2021/12/22 02:58:06;;;;;;;24.03;15.17;;;;;;;-3.86;100.00;150389.75;4995795;28;20446;-75
2021/12/22 03:01:04;;;;;;;23.37;14.67;;;;;;;-3.90;100.00;150380.84;4985439;28;20430;-75
2021/12/22 03:03:54;;;;;;;18.77;14.27;;;;;;;-3.92;100.00;150375.69;5013829;28;20448;-76
2021/12/22 03:06:35;;;;;;;21.60;13.77;;;;;;;-3.93;100.00;150373.16;5003670;28;20534;-76
2021/12/22 03:09:19;;;;;;;22.07;15.43;;;;;;;-3.97;100.00;150362.91;4996861;28;20440;-76
2021/12/22 03:11:58;;;;;;;21.70;14.93;;;;;;;-3.93;100.00;150371.88;5011315;28;20478;-76
2021/12/22 03:14:33;;;;;;;23.07;13.80;;;;;;;-3.90;100.00;150380.84;5016536;28;20579;-76
2021/12/22 03:17:09;;;;;;;20.50;13.47;;;;;;;-3.90;100.00;150380.84;5013191;28;20808;-75
2021/12/22 03:19:45;;;;;;;19.27;13.23;;;;;;;-3.90;100.00;150379.53;4997633;28;20444;-75
2021/12/22 03:22:21;;;;;;;21.83;14.50;;;;;;;-3.93;100.00;150373.16;5044264;28;20448;-75
2021/12/22 03:24:58;;;;;;;19.07;12.97;;;;;;;-3.83;100.00;150398.72;5024140;28;20444;-76
2021/12/22 03:27:33;;;;;;;19.77;13.57;;;;;;;-3.81;100.00;150403.81;5013510;28;20539;-75
2021/12/22 03:30:10;;;;;;;18.00;13.33;;;;;;;-3.81;100.00;150402.53;5011508;28;20568;-75
2021/12/22 03:32:46;;;;;;;19.77;13.53;;;;;;;-3.85;100.00;150393.63;5002785;28;20794;-75
2021/12/22 03:35:22;;;;;;;21.37;14.57;;;;;;;-3.86;100.00;150389.75;5011440;28;20454;-76
2021/12/22 03:37:59;;;;;;;19.13;13.50;;;;;;;-3.82;100.00;150401.28;5012839;28;20965;-76
2021/12/22 03:40:36;;;;;;;21.03;14.67;;;;;;;-3.90;100.00;150380.84;5020894;28;20487;-75
2021/12/22 03:43:11;;;;;;;21.87;14.40;;;;;;;-3.90;100.00;150380.84;5013162;28;20846;-75
2021/12/22 03:45:47;;;;;;;18.87;13.57;;;;;;;-3.94;100.00;150369.28;5027429;28;20439;-75
2021/12/22 03:48:24;;;;;;;20.20;14.20;;;;;;;-3.94;100.00;150370.56;5013578;28;20548;-75
2021/12/22 03:51:00;;;;;;;22.50;14.27;;;;;;;-3.94;100.00;150369.28;5028538;28;20448;-76
2021/12/22 03:53:36;;;;;;;20.70;14.53;;;;;;;-3.93;100.00;150373.16;5012349;28;20441;-75
2021/12/22 03:56:13;;;;;;;22.70;14.67;;;;;;;-3.90;99.96;150380.84;5010579;28;20472;-75
2021/12/22 03:58:49;;;;;;;20.23;13.07;;;;;;;-3.91;99.27;150376.97;4993595;28;20469;-76
2021/12/22 04:01:24;;;;;;;20.80;13.63;;;;;;;-3.92;99.90;150375.69;5011416;28;20486;-75
2021/12/22 04:04:05;;;;;;;22.40;12.73;;;;;;;-3.87;99.60;150388.50;5021092;28;20624;-75
2021/12/22 04:06:42;;;;;;;23.27;15.20;;;;;;;-3.93;99.18;150373.16;5009124;28;20468;-75
2021/12/22 04:09:26;;;;;;;20.63;13.10;;;;;;;-3.92;99.64;150375.69;5012275;28;20446;-75
2021/12/22 04:12:03;;;;;;;21.40;12.40;;;;;;;-3.89;99.39;150383.34;5011712;28;20479;-75
2021/12/22 04:14:38;;;;;;;21.57;13.40;;;;;;;-3.94;99.43;150370.56;5011800;28;20477;-75
2021/12/22 04:17:14;;;;;;;22.50;14.63;;;;;;;-3.91;99.48;150378.25;5003153;28;20442;-75
2021/12/22 04:19:49;;;;;;;22.20;12.57;;;;;;;-3.94;99.61;150370.56;5012946;28;20419;-75
2021/12/22 04:22:25;;;;;;;19.80;13.63;;;;;;;-3.94;99.20;150370.56;4996143;28;20453;-75
2021/12/22 04:25:01;;;;;;;19.20;13.77;;;;;;;-3.94;99.31;150370.56;5043617;28;20443;-75
2021/12/22 04:27:38;;;;;;;19.87;13.10;;;;;;;-3.90;99.32;150379.53;5007408;28;20453;-75
2021/12/22 04:30:14;;;;;;;22.50;14.90;;;;;;;-3.93;98.60;150373.16;5008313;28;20850;-75
2021/12/22 04:32:50;;;;;;;22.17;14.40;;;;;;;-3.96;98.95;150364.19;5008554;28;20454;-75
2021/12/22 04:35:25;;;;;;;19.37;13.37;;;;;;;-3.93;98.67;150373.16;5008863;28;20480;-75
2021/12/22 04:38:01;;;;;;;23.53;14.90;;;;;;;-3.96;98.91;150365.47;5011015;28;20490;-75
2021/12/22 04:40:36;;;;;;;20.00;12.93;;;;;;;-3.93;98.73;150373.16;5010999;28;20779;-75
2021/12/22 04:43:13;;;;;;;23.23;14.47;;;;;;;-3.97;98.77;150362.91;5011059;28;20454;-75
2021/12/22 04:45:49;;;;;;;19.67;13.67;;;;;;;-3.95;98.55;150368.06;5012275;28;20438;-75
2021/12/22 04:48:24;;;;;;;23.73;16.33;;;;;;;-3.91;98.59;150376.97;5010541;28;20455;-75
2021/12/22 04:50:59;;;;;;;22.37;17.07;;;;;;;-3.88;98.87;150385.94;5002463;28;20459;-75
2021/12/22 04:53:46;;;;;;;19.57;13.90;;;;;;;-3.90;98.42;150380.84;5007235;28;20447;-76
2021/12/22 04:56:22;;;;;;;20.47;13.63;;;;;;;-3.93;98.08;150373.16;5008680;28;20986;-75
2021/12/22 04:58:59;;;;;;;18.90;13.50;;;;;;;-3.96;98.33;150365.47;4997362;28;20535;-75
2021/12/22 05:01:35;;;;;;;23.37;14.30;;;;;;;-3.95;98.69;150366.75;5009594;28;20460;-75
2021/12/22 05:04:10;;;;;;;20.47;13.00;;;;;;;-3.82;97.41;150401.28;5016748;28;20448;-75
2021/12/22 05:06:47;;;;;;;19.83;12.77;;;;;;;-3.73;96.68;150423.00;5021348;28;20859;-75
2021/12/22 05:09:22;;;;;;;22.93;14.20;;;;;;;-3.64;95.67;150444.75;5006164;28;20444;-75
2021/12/22 05:11:58;;;;;;;20.90;14.73;;;;;;;-3.81;95.64;150403.81;5011526;28;20491;-75
2021/12/22 05:14:35;;;;;;;18.47;13.13;;;;;;;-3.70;95.52;150431.97;5016107;28;20811;-75
2021/12/22 05:17:18;;;;;;;20.47;11.87;;;;;;;-3.85;96.38;150393.63;5027385;28;20454;-75
2021/12/22 05:19:54;;;;;;;19.10;12.30;;;;;;;-3.85;96.68;150393.63;5010718;28;20450;-75
2021/12/22 05:22:29;;;;;;;19.50;11.47;;;;;;;-3.78;96.71;150410.22;5010807;28;20461;-75
2021/12/22 05:25:06;;;;;;;24.67;15.90;;;;;;;-3.85;96.55;150392.31;4996858;28;20451;-75
2021/12/22 05:27:42;;;;;;;21.07;14.90;;;;;;;-3.90;97.23;150379.53;4992634;28;20751;-75
2021/12/22 05:30:19;;;;;;;25.93;15.57;;;;;;;-3.99;97.25;150356.50;5006468;28;20698;-75
2021/12/22 05:32:55;;;;;;;24.23;15.90;;;;;;;-4.07;97.66;150337.34;5009510;28;20533;-76
2021/12/22 05:35:30;;;;;;;22.33;15.63;;;;;;;-4.11;98.03;150327.13;5010091;28;20469;-76
2021/12/22 05:38:06;;;;;;;23.03;13.50;;;;;;;-4.18;98.21;150309.22;5010825;28;20449;-75
2021/12/22 05:40:42;;;;;;;18.37;13.77;;;;;;;-4.23;98.49;150296.44;5009848;28;20445;-75
2021/12/22 05:43:17;;;;;;;22.83;14.97;;;;;;;-4.26;99.18;150287.50;4991557;28;20460;-75
2021/12/22 05:45:54;;;;;;;21.23;14.30;;;;;;;-4.33;99.09;150272.16;4992227;28;20417;-75
2021/12/22 05:48:30;;;;;;;23.23;15.07;;;;;;;-4.39;98.70;150256.81;5000962;28;20509;-75
2021/12/22 05:51:05;;;;;;;20.90;13.10;;;;;;;-4.39;99.29;150255.53;5010095;28;20811;-75
2021/12/22 05:53:41;;;;;;;18.53;13.50;;;;;;;-4.43;99.04;150246.63;5012077;28;20415;-75
2021/12/22 05:56:17;;;;;;;20.17;13.60;;;;;;;-4.47;99.00;150235.06;5009544;28;20489;-75
2021/12/22 05:58:52;;;;;;;17.07;13.73;;;;;;;-4.43;99.84;150245.31;4987498;28;20452;-75
2021/12/22 06:01:30;;;;;;;21.23;13.90;;;;;;;-4.45;99.45;150241.47;5022050;28;20455;-75
2021/12/22 06:04:07;;;;;;;24.90;14.50;;;;;;;-4.47;100.00;150235.06;5007097;28;20447;-75
2021/12/22 06:06:43;;;;;;;18.53;13.90;;;;;;;-4.51;99.59;150224.88;5010790;28;20451;-75
2021/12/22 06:09:18;;;;;;;21.70;14.10;;;;;;;-4.49;99.85;150229.97;5011071;28;20478;-75
2021/12/22 06:11:54;;;;;;;18.97;13.13;;;;;;;-4.52;99.91;150223.59;5013182;28;20581;-75
2021/12/22 06:14:29;;;;;;;20.60;13.70;;;;;;;-4.50;100.00;150227.44;5012184;28;20448;-75
2021/12/22 06:17:06;;;;;;;18.50;13.70;;;;;;;-4.50;100.00;150227.44;5004310;28;20861;-75
2021/12/22 06:19:42;;;;;;;19.57;14.87;;;;;;;-4.53;99.48;150219.78;5013317;28;20943;-75
2021/12/22 06:22:17;;;;;;;17.80;13.07;;;;;;;-4.54;100.00;150217.19;5013362;28;20446;-75
2021/12/22 06:24:53;;;;;;;22.70;12.83;;;;;;;-4.55;99.55;150214.63;5013634;28;20442;-75
2021/12/22 06:27:29;;;;;;;22.63;15.17;;;;;;;-4.54;99.57;150218.50;5015167;28;20434;-75
2021/12/22 06:30:05;;;;;;;21.33;13.50;;;;;;;-4.54;99.97;150217.19;5007335;28;20450;-75
2021/12/22 06:32:42;;;;;;;22.27;14.00;;;;;;;-4.56;99.91;150213.41;5005025;28;20452;-75
2021/12/22 06:35:17;;;;;;;20.80;13.30;;;;;;;-4.49;99.82;150231.25;4995930;28;20456;-75
2021/12/22 06:37:53;;;;;;;22.67;13.87;;;;;;;-4.46;98.94;150238.94;5014565;28;20450;-75
2021/12/22 06:40:29;;;;;;;21.77;13.30;;;;;;;-4.47;98.63;150235.06;5012907;28;20454;-75
2021/12/22 06:43:04;;;;;;;23.23;13.77;;;;;;;-4.48;99.20;150232.56;5011359;28;20457;-75
2021/12/22 06:45:40;;;;;;;20.20;13.03;;;;;;;-4.43;99.12;150245.31;5014441;28;20508;-75
2021/12/22 06:48:17;;;;;;;21.97;13.90;;;;;;;-4.46;98.82;150238.94;4992000;28;20455;-75
2021/12/22 06:50:52;;;;;;;21.10;12.93;;;;;;;-4.41;99.14;150250.44;5012943;28;20442;-75
2021/12/22 06:53:28;;;;;;;20.70;13.87;;;;;;;-4.41;99.19;150250.44;5013604;28;20449;-75
2021/12/22 06:56:04;;;;;;;21.83;13.70;;;;;;;-4.41;98.71;150250.44;5014246;28;20533;-75
2021/12/22 06:58:39;;;;;;;21.73;15.37;;;;;;;-4.50;98.65;150227.44;5012812;28;20445;-75
2021/12/22 07:01:18;;;;;;;19.03;13.53;;;;;;;-4.55;98.92;150215.91;5028562;28;20457;-75
2021/12/22 07:03:55;;;;;;;21.83;13.87;;;;;;;-4.57;99.28;150210.81;5010276;28;20932;-75
2021/12/22 07:06:31;;;;;;;21.40;13.83;;;;;;;-4.59;99.51;150205.72;5011349;28;20466;-75
2021/12/22 07:09:07;;;;;;;21.13;12.87;;;;;;;-4.63;99.19;150195.47;5013690;28;20454;-75
2021/12/22 07:11:43;;;;;;;21.83;14.30;;;;;;;-4.61;99.76;150199.34;5011482;28;20635;-75
2021/12/22 07:14:19;;;;;;;23.37;14.20;;;;;;;-4.64;99.82;150191.66;5016373;28;20714;-75
2021/12/22 07:16:56;;;;;;;23.30;14.90;;;;;;;-4.66;99.71;150186.56;5012196;28;20457;-75
2021/12/22 07:19:33;;;;;;;24.37;15.03;;;;;;;-4.66;99.86;150186.56;5013722;28;20427;-75
2021/12/22 07:22:08;;;;;;;22.87;15.17;;;;;;;-4.67;100.00;150185.28;5010334;28;20457;-75
2021/12/22 07:24:44;;;;;;;22.80;15.30;;;;;;;-4.64;99.94;150191.66;5011358;28;20416;-75
2021/12/22 07:27:20;;;;;;;22.43;14.87;;;;;;;-4.66;99.67;150186.56;5013281;28;20465;-75
2021/12/22 07:29:55;;;;;;;22.83;14.50;;;;;;;-4.68;100.00;150182.69;5013226;28;20897;-75
2021/12/22 07:32:32;;;;;;;20.83;13.80;;;;;;;-4.65;100.00;150189.09;4993615;28;20449;-75
2021/12/22 07:35:11;;;;;;;22.90;15.23;;;;;;;-4.65;100.00;150190.38;5011811;28;20446;-75
2021/12/22 07:37:52;;;;;;;20.63;14.50;;;;;;;-4.64;100.00;150191.66;5011391;28;20581;-75
2021/12/22 07:40:27;;;;;;;21.50;13.97;;;;;;;-4.60;100.00;150201.84;5010479;28;20441;-75
2021/12/22 07:43:03;;;;;;;25.93;14.77;;;;;;;-4.55;99.94;150214.63;5009814;28;20437;-75
2021/12/22 07:45:38;;;;;;;21.93;14.63;;;;;;;-4.53;99.78;150219.78;4996227;28;20446;-75
2021/12/22 07:48:14;;;;;;;24.40;14.13;;;;;;;-4.46;99.72;150238.94;5013406;28;20429;-75
2021/12/22 07:50:51;;;;;;;21.60;15.30;;;;;;;-4.46;99.65;150238.94;5010537;28;20835;-75
2021/12/22 07:53:27;;;;;;;23.60;14.53;;;;;;;-4.44;99.83;150242.75;5016957;28;20454;-75
2021/12/22 07:56:03;;;;;;;19.40;13.70;;;;;;;-4.37;99.54;150260.69;4991646;28;20970;-75
2021/12/22 07:58:38;;;;;;;20.40;14.07;;;;;;;-4.34;99.76;150269.59;5007171;28;20440;-75
2021/12/22 08:01:14;;;;;;;23.87;14.10;;;;;;;-4.28;99.35;150283.66;5000314;28;20454;-75
2021/12/22 08:03:50;;;;;;;20.17;14.67;;;;;;;-4.24;99.39;150292.63;4992912;28;20463;-75
2021/12/22 08:06:27;;;;;;;18.33;13.90;;;;;;;-4.16;99.91;150314.34;4992233;28;20462;-75
2021/12/22 08:09:03;;;;;;;23.70;15.00;;;;;;;-4.14;99.43;150319.47;5010139;28;20447;-75
2021/12/22 08:11:39;;;;;;;22.20;14.57;;;;;;;-4.04;99.69;150343.72;5007071;28;20458;-75
2021/12/22 08:14:14;;;;;;;20.13;13.00;;;;;;;-4.00;99.23;150354.00;5020011;28;20853;-75
2021/12/22 08:16:50;;;;;;;21.97;13.90;;;;;;;-3.92;99.39;150375.69;5004399;28;20753;-75
2021/12/22 08:19:25;;;;;;;21.37;13.80;;;;;;;-3.86;99.33;150391.03;4992620;28;20545;-75
2021/12/22 08:22:03;;;;;;;25.13;14.37;;;;;;;-3.82;99.11;150400.00;5007685;28;20962;-75
2021/12/22 08:24:38;;;;;;;19.93;12.97;;;;;;;-3.80;98.90;150406.41;5009234;28;20542;-75
2021/12/22 08:27:14;;;;;;;24.90;14.93;;;;;;;-3.74;98.72;150421.75;5008640;28;20843;-75
2021/12/22 08:29:50;;;;;;;23.30;15.73;;;;;;;-3.71;98.65;150429.38;5008580;28;20451;-75
2021/12/22 08:32:25;;;;;;;23.70;14.93;;;;;;;-3.67;98.54;150437.06;4999889;28;20452;-75
2021/12/22 08:35:03;;;;;;;21.63;13.90;;;;;;;-3.59;98.47;150457.53;5012314;28;20461;-74
2021/12/22 08:40:33;;;;;;;21.53;14.37;;;;;;;-3.47;98.43;150488.25;5010637;28;20788;-75
2021/12/22 08:43:09;;;;;;;19.47;13.47;;;;;;;-3.39;98.07;150508.72;5009554;28;20447;-75
2021/12/22 08:45:45;;;;;;;19.13;12.73;;;;;;;-3.35;98.29;150518.94;5011554;28;20509;-75
2021/12/22 08:48:20;;;;;;;21.00;14.50;;;;;;;-3.28;98.06;150536.84;5011729;28;20930;-75
2021/12/22 08:50:55;;;;;;;19.73;14.30;;;;;;;-3.18;96.58;150563.69;5010397;28;20447;-74
2021/12/22 08:53:32;;;;;;;19.53;13.77;;;;;;;-3.22;96.91;150552.19;4999602;28;20452;-74
2021/12/22 08:56:08;;;;;;;24.77;15.23;;;;;;;-3.27;96.61;150539.41;5008619;28;20455;-74
2021/12/22 08:58:44;;;;;;;25.67;15.17;;;;;;;-3.19;96.67;150559.88;5012559;28;20424;-75
2021/12/22 09:01:19;;;;;;;24.20;15.50;;;;;;;-3.19;96.52;150561.16;5010666;28;20448;-75
2021/12/22 09:03:55;;;;;;;21.43;14.23;;;;;;;-3.07;95.83;150590.56;5004734;28;20477;-75
2021/12/22 09:06:31;;;;;;;16.97;11.93;;;;;;;-3.00;95.94;150608.50;5010527;28;20447;-75
2021/12/22 09:09:09;;;;;;;19.20;13.43;;;;;;;-2.99;95.88;150611.03;5010690;28;20436;-75
2021/12/22 09:11:44;;;;;;;21.10;13.73;;;;;;;-2.95;95.86;150621.31;5039438;28;20531;-75
2021/12/22 09:14:21;;;;;;;21.20;13.97;;;;;;;-2.91;95.50;150631.53;4995687;28;20452;-75
2021/12/22 09:16:57;;;;;;;23.90;14.37;;;;;;;-2.84;95.03;150649.47;5010578;28;20471;-75
2021/12/22 09:19:32;;;;;;;20.20;12.63;;;;;;;-2.74;94.50;150675.06;5009619;28;20446;-75
2021/12/22 09:22:07;;;;;;;23.90;13.73;;;;;;;-2.70;95.08;150685.28;5008363;28;20458;-75
2021/12/22 09:24:44;;;;;;;21.73;13.33;;;;;;;-2.70;94.97;150685.28;5020286;28;20456;-75
2021/12/22 09:27:20;;;;;;;18.53;12.80;;;;;;;-2.70;95.13;150684.03;5025157;28;20453;-75
2021/12/22 09:29:56;;;;;;;17.03;12.57;;;;;;;-2.72;95.36;150678.88;5009901;28;20451;-75
2021/12/22 09:32:31;;;;;;;21.77;14.00;;;;;;;-2.74;95.60;150675.06;5010690;28;20448;-75
2021/12/22 09:35:08;;;;;;;22.93;14.27;;;;;;;-2.72;95.87;150680.16;5006754;28;20476;-75
2021/12/22 09:37:43;;;;;;;24.27;14.73;;;;;;;-2.70;96.13;150684.03;5003583;28;21026;-75
2021/12/22 09:40:20;;;;;;;21.07;12.60;;;;;;;-2.71;96.13;150682.75;5009573;28;20448;-75
2021/12/22 09:42:55;;;;;;;23.07;14.27;;;;;;;-2.66;96.24;150694.25;4994950;28;20452;-75
2021/12/22 09:45:33;;;;;;;36.23;15.30;;;;;;;-2.65;95.96;150698.06;5013836;28;20441;-75
2021/12/22 09:48:28;;;;;;;18.70;12.90;;;;;;;-2.58;95.29;150716.03;5014581;28;20452;-75
2021/12/22 09:53:58;;;;;;;23.00;14.10;;;;;;;-2.51;95.19;150733.94;4998002;28;20507;-75
2021/12/22 09:56:35;;;;;;;20.10;12.90;;;;;;;-2.51;95.24;150733.94;5012319;28;20468;-75
2021/12/22 09:59:11;;;;;;;22.03;12.77;;;;;;;-2.51;94.89;150733.94;5025941;28;20457;-75
2021/12/22 10:01:47;;;;;;;19.60;13.17;;;;;;;-2.43;94.21;150751.84;5009506;28;20456;-75
2021/12/22 10:04:22;;;;;;;25.03;14.40;;;;;;;-2.36;93.97;150771.09;5008336;28;20458;-75
2021/12/22 10:06:58;;;;;;;25.27;14.90;;;;;;;-2.35;93.23;150773.63;5015745;28;20442;-75
2021/12/22 10:09:42;;;;;;;21.43;14.57;;;;;;;-2.31;93.83;150782.59;5005347;28;20444;-75
2021/12/22 10:12:21;;;;;;;19.40;12.50;;;;;;;-2.33;93.57;150778.72;5010607;28;20478;-75
2021/12/22 10:14:58;;;;;;;23.40;15.40;;;;;;;-2.27;93.34;150792.81;5011989;28;20453;-75
2021/12/22 10:17:36;;;;;;;20.70;14.27;;;;;;;-2.20;93.21;150810.78;5008931;28;20464;-75
2021/12/22 10:20:13;;;;;;;26.43;14.60;;;;;;;-2.12;93.07;150831.28;4987183;28;20480;-75
2021/12/22 10:22:51;;;;;;;20.40;12.43;;;;;;;-2.02;92.18;150856.88;5013899;28;20480;-75
2021/12/22 10:25:29;;;;;;;21.23;13.40;;;;;;;-2.05;92.00;150849.19;5013152;28;20486;-75
2021/12/22 10:28:09;;;;;;;19.03;12.70;;;;;;;-2.04;91.37;150851.78;5008297;28;20445;-75
2021/12/22 10:30:45;;;;;;;22.07;12.40;;;;;;;-2.06;91.44;150847.91;5009690;28;20450;-75
2021/12/22 10:33:21;;;;;;;22.40;13.33;;;;;;;-2.04;91.92;150851.78;5010576;28;20866;-75
2021/12/22 10:35:58;;;;;;;21.63;14.97;;;;;;;-2.09;92.00;150838.97;5026655;28;20441;-75
2021/12/22 10:38:34;;;;;;;20.40;12.97;;;;;;;-2.08;91.84;150842.78;5011957;28;20468;-75
2021/12/22 10:41:11;;;;;;;21.27;12.80;;;;;;;-2.03;90.88;150855.59;5012269;28;20448;-75
2021/12/22 10:43:49;;;;;;;16.50;12.03;;;;;;;-2.01;91.32;150860.69;5014608;28;20426;-75
2021/12/22 10:46:27;;;;;;;19.93;12.10;;;;;;;-1.86;90.48;150897.88;5012066;28;20456;-75
2021/12/22 10:49:20;;;;;;;17.67;11.33;;;;;;;-1.96;90.88;150873.50;5013530;28;20441;-75
2021/12/22 10:51:58;;;;;;;19.03;12.73;;;;;;;-1.84;89.89;150902.97;5006881;28;20463;-75
2021/12/22 10:54:35;;;;;;;17.77;12.37;;;;;;;-1.84;90.27;150902.97;5013320;28;20530;-75
2021/12/22 10:57:12;;;;;;;15.93;11.43;;;;;;;-1.83;90.54;150906.81;5012968;28;20488;-75
2021/12/22 10:59:50;;;;;;;15.53;11.40;;;;;;;-1.80;90.33;150913.22;5013847;28;20454;-75
2021/12/22 11:02:31;;;;;;;20.30;12.63;;;;;;;-1.85;90.03;150901.69;5010397;28;20882;-75
2021/12/22 11:05:17;;;;;;;21.17;12.07;;;;;;;-1.68;87.91;150942.69;5007848;28;20441;-75
2021/12/22 11:07:53;;;;;;;19.10;12.00;;;;;;;-1.71;88.61;150936.28;5011577;28;20459;-75
2021/12/22 11:10:30;;;;;;;20.53;11.17;;;;;;;-1.64;87.18;150952.97;5008244;28;20486;-75
2021/12/22 11:13:07;;;;;;;18.87;12.40;;;;;;;-1.56;86.93;150974.72;5010975;28;20830;-74
2021/12/22 11:15:44;;;;;;;18.63;12.63;;;;;;;-1.61;87.67;150961.91;5000799;28;20450;-74
2021/12/22 11:18:27;;;;;;;19.33;11.03;;;;;;;-1.65;88.61;150951.69;5009477;28;20990;-75
2021/12/22 11:21:13;;;;;;;21.07;11.90;;;;;;;-1.66;88.51;150947.81;5010473;28;20438;-75
2021/12/22 11:23:48;;;;;;;16.90;11.20;;;;;;;-1.50;87.43;150990.09;4989359;28;20449;-75
2021/12/22 11:26:24;;;;;;;21.97;13.90;;;;;;;-1.50;87.71;150990.09;4991561;28;20448;-75
2021/12/22 11:28:59;;;;;;;17.47;11.13;;;;;;;-1.49;86.39;150992.69;5007572;28;20445;-75
2021/12/22 11:31:36;;;;;;;21.13;13.67;;;;;;;-1.57;87.94;150970.91;5009667;28;20450;-75
2021/12/22 11:34:14;;;;;;;17.00;12.40;;;;;;;-1.45;86.13;151002.91;5003567;28;20447;-75
2021/12/22 11:36:51;;;;;;;18.87;11.27;;;;;;;-1.38;85.97;151020.84;5005454;28;20449;-75
2021/12/22 11:39:26;;;;;;;20.50;14.10;;;;;;;-1.43;86.70;151008.03;4995360;28;20849;-75
2021/12/22 11:42:06;;;;;;;22.97;14.93;;;;;;;-1.33;86.15;151033.69;5008591;28;20444;-75
2021/12/22 11:44:46;;;;;;;22.27;13.60;;;;;;;-1.38;86.52;151020.84;5006993;28;20445;-75
2021/12/22 11:47:23;;;;;;;20.97;11.70;;;;;;;-1.36;86.07;151026.00;5010345;28;20477;-75
2021/12/22 11:50:00;;;;;;;17.23;11.17;;;;;;;-1.40;85.69;151014.44;5009779;28;20448;-75
2021/12/22 11:52:37;;;;;;;18.50;11.90;;;;;;;-1.40;87.19;151015.72;5021534;28;20845;-75
2021/12/22 11:55:17;;;;;;;16.20;10.70;;;;;;;-1.38;85.84;151020.84;5020425;28;20455;-75
2021/12/22 11:57:54;;;;;;;18.37;12.73;;;;;;;-1.34;85.74;151029.84;4991772;28;20470;-75